Terminal Aerodrome Forecast
Issued by NWS St Louis, MO

Home | Current Version | Previous Version | Text Only | Print | Product List | Glossary On
Versions: 1 2 3 4 5 6 7 8 9 10 11 12 13 14 15 16 17 18 19 20 21 22 23 24
000
FTUS43 KLSX 251700
TAFCOU
TAF
KCOU 251720Z 2518/2618 18014G22KT P6SM FEW250
     FM252300 16010KT P6SM FEW150 BKN250
     FM261500 18010KT P6SM BKN025=

USA.gov is the U.S. government's official web portal to all federal, state and local government web resources and services.